sensor_id;sensor_type;location;lat;lon;timestamp;P1;durP1;ratioP1;P2;durP2;ratioP2
41946;SDS011;27638;42.184;24.848;2022-08-01T00:00:22;7.88;;;7.10;;
41946;SDS011;27638;42.184;24.848;2022-08-01T00:02:48;11.70;;;7.60;;
41946;SDS011;27638;42.184;24.848;2022-08-01T00:05:13;8.70;;;7.80;;
41946;SDS011;27638;42.184;24.848;2022-08-01T00:07:39;8.82;;;7.88;;
41946;SDS011;27638;42.184;24.848;2022-08-01T00:10:05;9.35;;;7.70;;
41946;SDS011;27638;42.184;24.848;2022-08-01T00:12:33;10.45;;;7.72;;
41946;SDS011;27638;42.184;24.848;2022-08-01T00:14:58;8.38;;;7.47;;
41946;SDS011;27638;42.184;24.848;2022-08-01T00:17:24;8.88;;;7.97;;
41946;SDS011;27638;42.184;24.848;2022-08-01T00:19:50;8.68;;;7.22;;
41946;SDS011;27638;42.184;24.848;2022-08-01T00:22:16;8.55;;;7.75;;
41946;SDS011;27638;42.184;24.848;2022-08-01T00:24:41;10.73;;;7.03;;
41946;SDS011;27638;42.184;24.848;2022-08-01T00:27:07;9.63;;;7.28;;
41946;SDS011;27638;42.184;24.848;2022-08-01T00:29:32;9.32;;;7.45;;
41946;SDS011;27638;42.184;24.848;2022-08-01T00:31:58;9.27;;;7.55;;
41946;SDS011;27638;42.184;24.848;2022-08-01T00:34:23;7.72;;;6.82;;
41946;SDS011;27638;42.184;24.848;2022-08-01T00:36:48;7.93;;;7.03;;
41946;SDS011;27638;42.184;24.848;2022-08-01T00:39:14;7.45;;;6.75;;
41946;SDS011;27638;42.184;24.848;2022-08-01T00:41:39;8.43;;;6.53;;
41946;SDS011;27638;42.184;24.848;2022-08-01T00:44:05;8.80;;;7.22;;
41946;SDS011;27638;42.184;24.848;2022-08-01T00:46:31;7.65;;;6.95;;
41946;SDS011;27638;42.184;24.848;2022-08-01T00:48:57;9.60;;;7.05;;
41946;SDS011;27638;42.184;24.848;2022-08-01T00:51:23;7.97;;;7.18;;
41946;SDS011;27638;42.184;24.848;2022-08-01T00:53:50;8.13;;;7.35;;
41946;SDS011;27638;42.184;24.848;2022-08-01T00:56:16;8.07;;;7.28;;
41946;SDS011;27638;42.184;24.848;2022-08-01T00:58:43;8.00;;;7.30;;
41946;SDS011;27638;42.184;24.848;2022-08-01T01:01:09;9.57;;;7.93;;
41946;SDS011;27638;42.184;24.848;2022-08-01T01:03:35;10.40;;;7.55;;
41946;SDS011;27638;42.184;24.848;2022-08-01T01:08:42;7.82;;;7.03;;
41946;SDS011;27638;42.184;24.848;2022-08-01T01:11:25;8.68;;;7.47;;
41946;SDS011;27638;42.184;24.848;2022-08-01T01:14:08;7.63;;;6.93;;
41946;SDS011;27638;42.184;24.848;2022-08-01T01:16:38;7.93;;;7.10;;
41946;SDS011;27638;42.184;24.848;2022-08-01T01:19:08;9.35;;;7.00;;
41946;SDS011;27638;42.184;24.848;2022-08-01T01:34:37;8.90;;;6.82;;
41946;SDS011;27638;42.184;24.848;2022-08-01T01:37:04;9.18;;;7.43;;
41946;SDS011;27638;42.184;24.848;2022-08-01T01:39:34;10.68;;;7.15;;
41946;SDS011;27638;42.184;24.848;2022-08-01T01:42:02;10.95;;;6.72;;
41946;SDS011;27638;42.184;24.848;2022-08-01T01:44:30;9.02;;;7.07;;
41946;SDS011;27638;42.184;24.848;2022-08-01T01:46:57;7.97;;;7.15;;
41946;SDS011;27638;42.184;24.848;2022-08-01T01:49:25;8.20;;;7.03;;
41946;SDS011;27638;42.184;24.848;2022-08-01T01:51:53;8.88;;;7.05;;
41946;SDS011;27638;42.184;24.848;2022-08-01T01:54:22;7.93;;;6.93;;
41946;SDS011;27638;42.184;24.848;2022-08-01T01:56:49;10.45;;;7.15;;
41946;SDS011;27638;42.184;24.848;2022-08-01T01:59:18;7.47;;;6.40;;
41946;SDS011;27638;42.184;24.848;2022-08-01T02:01:49;10.73;;;7.10;;
41946;SDS011;27638;42.184;24.848;2022-08-01T02:04:17;7.88;;;6.93;;
41946;SDS011;27638;42.184;24.848;2022-08-01T02:06:45;9.48;;;6.88;;
41946;SDS011;27638;42.184;24.848;2022-08-01T02:09:11;8.70;;;7.20;;
41946;SDS011;27638;42.184;24.848;2022-08-01T02:11:41;8.85;;;7.75;;
41946;SDS011;27638;42.184;24.848;2022-08-01T02:14:08;8.02;;;6.85;;
41946;SDS011;27638;42.184;24.848;2022-08-01T02:16:36;7.30;;;6.40;;
41946;SDS011;27638;42.184;24.848;2022-08-01T02:19:04;11.05;;;6.82;;
41946;SDS011;27638;42.184;24.848;2022-08-01T02:27:06;9.48;;;6.78;;
41946;SDS011;27638;42.184;24.848;2022-08-01T02:29:41;7.75;;;6.95;;
41946;SDS011;27638;42.184;24.848;2022-08-01T02:32:31;12.18;;;7.45;;
41946;SDS011;27638;42.184;24.848;2022-08-01T02:34:57;11.35;;;7.57;;
41946;SDS011;27638;42.184;24.848;2022-08-01T02:37:26;9.80;;;7.22;;
41946;SDS011;27638;42.184;24.848;2022-08-01T02:39:54;9.90;;;7.03;;
41946;SDS011;27638;42.184;24.848;2022-08-01T02:42:20;9.73;;;6.97;;
41946;SDS011;27638;42.184;24.848;2022-08-01T02:44:49;8.93;;;6.28;;
41946;SDS011;27638;42.184;24.848;2022-08-01T02:47:17;9.00;;;7.47;;
41946;SDS011;27638;42.184;24.848;2022-08-01T02:49:46;8.48;;;6.57;;
41946;SDS011;27638;42.184;24.848;2022-08-01T02:52:14;10.32;;;5.90;;
41946;SDS011;27638;42.184;24.848;2022-08-01T02:54:43;8.98;;;6.28;;
41946;SDS011;27638;42.184;24.848;2022-08-01T02:57:10;7.78;;;5.53;;
41946;SDS011;27638;42.184;24.848;2022-08-01T02:59:38;8.13;;;5.35;;
41946;SDS011;27638;42.184;24.848;2022-08-01T03:02:05;6.22;;;5.30;;
41946;SDS011;27638;42.184;24.848;2022-08-01T03:04:32;8.32;;;5.40;;
41946;SDS011;27638;42.184;24.848;2022-08-01T03:07:01;8.93;;;5.30;;
41946;SDS011;27638;42.184;24.848;2022-08-01T03:09:29;7.93;;;5.63;;
41946;SDS011;27638;42.184;24.848;2022-08-01T03:11:59;7.55;;;5.72;;
41946;SDS011;27638;42.184;24.848;2022-08-01T03:14:27;10.95;;;5.43;;
41946;SDS011;27638;42.184;24.848;2022-08-01T03:16:55;11.75;;;5.57;;
41946;SDS011;27638;42.184;24.848;2022-08-01T03:19:24;5.95;;;5.35;;
41946;SDS011;27638;42.184;24.848;2022-08-01T03:21:51;8.25;;;4.93;;
41946;SDS011;27638;42.184;24.848;2022-08-01T03:24:18;9.18;;;5.00;;
41946;SDS011;27638;42.184;24.848;2022-08-01T03:26:44;7.45;;;4.90;;
41946;SDS011;27638;42.184;24.848;2022-08-01T03:29:15;5.68;;;5.05;;
41946;SDS011;27638;42.184;24.848;2022-08-01T03:31:43;8.57;;;5.07;;
41946;SDS011;27638;42.184;24.848;2022-08-01T03:34:10;7.03;;;5.20;;
41946;SDS011;27638;42.184;24.848;2022-08-01T03:36:37;15.80;;;5.40;;
41946;SDS011;27638;42.184;24.848;2022-08-01T03:39:13;9.32;;;4.85;;
41946;SDS011;27638;42.184;24.848;2022-08-01T03:41:41;4.93;;;4.43;;
41946;SDS011;27638;42.184;24.848;2022-08-01T03:44:13;6.72;;;5.45;;
41946;SDS011;27638;42.184;24.848;2022-08-01T03:46:42;8.73;;;5.03;;
41946;SDS011;27638;42.184;24.848;2022-08-01T03:49:11;6.18;;;4.88;;
41946;SDS011;27638;42.184;24.848;2022-08-01T03:51:42;6.40;;;4.72;;
41946;SDS011;27638;42.184;24.848;2022-08-01T03:54:13;6.55;;;4.30;;
41946;SDS011;27638;42.184;24.848;2022-08-01T03:56:40;6.45;;;4.70;;
41946;SDS011;27638;42.184;24.848;2022-08-01T03:59:07;7.93;;;4.63;;
41946;SDS011;27638;42.184;24.848;2022-08-01T04:01:34;7.88;;;4.57;;
41946;SDS011;27638;42.184;24.848;2022-08-01T04:04:00;7.40;;;4.57;;
41946;SDS011;27638;42.184;24.848;2022-08-01T04:06:26;7.13;;;4.70;;
41946;SDS011;27638;42.184;24.848;2022-08-01T04:08:52;18.63;;;4.70;;
41946;SDS011;27638;42.184;24.848;2022-08-01T04:11:21;6.88;;;4.30;;
41946;SDS011;27638;42.184;24.848;2022-08-01T04:13:48;6.82;;;4.80;;
41946;SDS011;27638;42.184;24.848;2022-08-01T04:16:14;9.25;;;4.47;;
41946;SDS011;27638;42.184;24.848;2022-08-01T04:18:39;5.68;;;4.10;;
41946;SDS011;27638;42.184;24.848;2022-08-01T04:21:05;7.30;;;5.18;;
41946;SDS011;27638;42.184;24.848;2022-08-01T04:23:30;5.93;;;4.90;;
41946;SDS011;27638;42.184;24.848;2022-08-01T04:25:58;7.95;;;4.57;;
41946;SDS011;27638;42.184;24.848;2022-08-01T04:28:29;9.05;;;4.82;;
41946;SDS011;27638;42.184;24.848;2022-08-01T04:30:56;9.00;;;4.03;;
41946;SDS011;27638;42.184;24.848;2022-08-01T04:33:24;6.03;;;4.20;;
41946;SDS011;27638;42.184;24.848;2022-08-01T04:35:52;8.48;;;3.95;;
41946;SDS011;27638;42.184;24.848;2022-08-01T04:38:19;5.78;;;3.53;;
41946;SDS011;27638;42.184;24.848;2022-08-01T04:40:46;6.40;;;3.67;;
41946;SDS011;27638;42.184;24.848;2022-08-01T04:43:13;8.50;;;4.05;;
41946;SDS011;27638;42.184;24.848;2022-08-01T04:45:39;5.55;;;4.20;;
41946;SDS011;27638;42.184;24.848;2022-08-01T04:48:05;5.30;;;3.92;;
41946;SDS011;27638;42.184;24.848;2022-08-01T04:50:34;8.98;;;4.20;;
41946;SDS011;27638;42.184;24.848;2022-08-01T04:53:00;7.50;;;3.67;;
41946;SDS011;27638;42.184;24.848;2022-08-01T04:55:28;4.50;;;3.60;;
41946;SDS011;27638;42.184;24.848;2022-08-01T04:57:53;6.15;;;3.95;;
41946;SDS011;27638;42.184;24.848;2022-08-01T05:00:19;4.32;;;3.80;;
41946;SDS011;27638;42.184;24.848;2022-08-01T05:02:44;4.40;;;3.42;;
41946;SDS011;27638;42.184;24.848;2022-08-01T05:05:11;6.57;;;3.63;;
41946;SDS011;27638;42.184;24.848;2022-08-01T05:07:37;6.32;;;3.67;;
41946;SDS011;27638;42.184;24.848;2022-08-01T05:10:03;5.05;;;3.63;;
41946;SDS011;27638;42.184;24.848;2022-08-01T05:12:29;5.40;;;3.35;;
41946;SDS011;27638;42.184;24.848;2022-08-01T05:14:56;4.45;;;2.90;;
41946;SDS011;27638;42.184;24.848;2022-08-01T05:17:22;5.40;;;3.47;;
41946;SDS011;27638;42.184;24.848;2022-08-01T05:19:48;6.25;;;3.17;;
41946;SDS011;27638;42.184;24.848;2022-08-01T05:22:13;3.75;;;2.92;;
41946;SDS011;27638;42.184;24.848;2022-08-01T05:24:39;3.88;;;3.20;;
41946;SDS011;27638;42.184;24.848;2022-08-01T05:27:05;7.63;;;2.67;;
41946;SDS011;27638;42.184;24.848;2022-08-01T05:29:32;5.70;;;2.97;;
41946;SDS011;27638;42.184;24.848;2022-08-01T05:31:58;3.83;;;3.15;;
41946;SDS011;27638;42.184;24.848;2022-08-01T05:34:24;7.28;;;2.90;;
41946;SDS011;27638;42.184;24.848;2022-08-01T05:36:50;7.03;;;2.83;;
41946;SDS011;27638;42.184;24.848;2022-08-01T05:39:16;4.88;;;2.90;;
41946;SDS011;27638;42.184;24.848;2022-08-01T05:41:41;4.22;;;3.25;;
41946;SDS011;27638;42.184;24.848;2022-08-01T05:44:07;4.07;;;2.72;;
41946;SDS011;27638;42.184;24.848;2022-08-01T05:46:34;7.15;;;2.65;;
41946;SDS011;27638;42.184;24.848;2022-08-01T05:49:00;7.28;;;2.75;;
41946;SDS011;27638;42.184;24.848;2022-08-01T05:51:28;5.30;;;2.90;;
41946;SDS011;27638;42.184;24.848;2022-08-01T05:53:54;9.43;;;3.15;;
41946;SDS011;27638;42.184;24.848;2022-08-01T05:56:20;5.93;;;2.05;;
41946;SDS011;27638;42.184;24.848;2022-08-01T05:58:46;6.15;;;2.22;;
41946;SDS011;27638;42.184;24.848;2022-08-01T06:01:11;2.83;;;2.25;;
41946;SDS011;27638;42.184;24.848;2022-08-01T06:03:37;5.57;;;2.10;;
41946;SDS011;27638;42.184;24.848;2022-08-01T06:06:03;4.50;;;2.30;;
41946;SDS011;27638;42.184;24.848;2022-08-01T06:08:29;2.25;;;2.05;;
41946;SDS011;27638;42.184;24.848;2022-08-01T06:10:56;6.22;;;2.08;;
41946;SDS011;27638;42.184;24.848;2022-08-01T06:13:22;4.90;;;1.98;;
41946;SDS011;27638;42.184;24.848;2022-08-01T06:15:47;5.50;;;2.03;;
41946;SDS011;27638;42.184;24.848;2022-08-01T06:18:13;6.15;;;2.03;;
41946;SDS011;27638;42.184;24.848;2022-08-01T06:20:39;4.53;;;2.00;;
41946;SDS011;27638;42.184;24.848;2022-08-01T06:23:05;8.68;;;2.42;;
41946;SDS011;27638;42.184;24.848;2022-08-01T06:25:30;8.35;;;2.38;;
41946;SDS011;27638;42.184;24.848;2022-08-01T06:27:56;9.15;;;2.03;;
41946;SDS011;27638;42.184;24.848;2022-08-01T06:30:22;8.02;;;2.08;;
41946;SDS011;27638;42.184;24.848;2022-08-01T06:32:48;5.07;;;2.28;;
41946;SDS011;27638;42.184;24.848;2022-08-01T06:35:14;4.35;;;1.85;;
41946;SDS011;27638;42.184;24.848;2022-08-01T06:37:40;2.78;;;1.88;;
41946;SDS011;27638;42.184;24.848;2022-08-01T06:40:06;4.47;;;1.92;;
41946;SDS011;27638;42.184;24.848;2022-08-01T06:42:34;5.97;;;2.10;;
41946;SDS011;27638;42.184;24.848;2022-08-01T06:45:06;4.72;;;2.17;;
41946;SDS011;27638;42.184;24.848;2022-08-01T06:47:34;7.97;;;2.17;;
41946;SDS011;27638;42.184;24.848;2022-08-01T06:50:00;10.48;;;1.77;;
41946;SDS011;27638;42.184;24.848;2022-08-01T06:52:26;5.28;;;1.60;;
41946;SDS011;27638;42.184;24.848;2022-08-01T06:54:51;5.45;;;1.55;;
41946;SDS011;27638;42.184;24.848;2022-08-01T06:57:17;6.85;;;1.67;;
41946;SDS011;27638;42.184;24.848;2022-08-01T06:59:43;7.72;;;2.35;;
41946;SDS011;27638;42.184;24.848;2022-08-01T07:02:08;6.18;;;2.15;;
41946;SDS011;27638;42.184;24.848;2022-08-01T07:04:34;5.60;;;1.80;;
41946;SDS011;27638;42.184;24.848;2022-08-01T07:07:00;7.28;;;2.15;;
41946;SDS011;27638;42.184;24.848;2022-08-01T07:09:26;6.93;;;1.77;;
41946;SDS011;27638;42.184;24.848;2022-08-01T07:11:52;4.28;;;1.88;;
41946;SDS011;27638;42.184;24.848;2022-08-01T07:14:18;3.80;;;1.70;;
41946;SDS011;27638;42.184;24.848;2022-08-01T07:16:44;4.78;;;1.67;;
41946;SDS011;27638;42.184;24.848;2022-08-01T07:19:10;7.65;;;2.15;;
41946;SDS011;27638;42.184;24.848;2022-08-01T07:21:36;5.38;;;1.85;;
41946;SDS011;27638;42.184;24.848;2022-08-01T07:24:02;4.85;;;1.85;;
41946;SDS011;27638;42.184;24.848;2022-08-01T07:26:28;5.25;;;2.35;;
41946;SDS011;27638;42.184;24.848;2022-08-01T07:28:53;3.45;;;1.80;;
41946;SDS011;27638;42.184;24.848;2022-08-01T07:31:19;10.25;;;1.80;;
41946;SDS011;27638;42.184;24.848;2022-08-01T07:33:45;12.43;;;2.00;;
41946;SDS011;27638;42.184;24.848;2022-08-01T07:36:10;8.00;;;2.17;;
41946;SDS011;27638;42.184;24.848;2022-08-01T07:38:36;6.70;;;2.17;;
41946;SDS011;27638;42.184;24.848;2022-08-01T07:41:02;3.83;;;2.13;;
41946;SDS011;27638;42.184;24.848;2022-08-01T07:43:27;4.63;;;2.17;;
41946;SDS011;27638;42.184;24.848;2022-08-01T07:45:53;13.07;;;2.40;;
41946;SDS011;27638;42.184;24.848;2022-08-01T07:48:18;7.97;;;2.17;;
41946;SDS011;27638;42.184;24.848;2022-08-01T07:50:48;6.88;;;1.73;;
41946;SDS011;27638;42.184;24.848;2022-08-01T07:53:14;8.63;;;2.08;;
41946;SDS011;27638;42.184;24.848;2022-08-01T07:55:40;17.05;;;2.28;;
41946;SDS011;27638;42.184;24.848;2022-08-01T07:58:05;6.07;;;1.67;;
41946;SDS011;27638;42.184;24.848;2022-08-01T08:00:31;7.18;;;1.70;;
41946;SDS011;27638;42.184;24.848;2022-08-01T08:02:56;7.38;;;2.40;;
41946;SDS011;27638;42.184;24.848;2022-08-01T08:05:24;7.30;;;1.90;;
41946;SDS011;27638;42.184;24.848;2022-08-01T08:07:50;8.10;;;1.63;;
41946;SDS011;27638;42.184;24.848;2022-08-01T08:10:15;3.75;;;1.40;;
41946;SDS011;27638;42.184;24.848;2022-08-01T08:12:41;12.98;;;2.40;;
41946;SDS011;27638;42.184;24.848;2022-08-01T08:15:07;12.40;;;2.00;;
41946;SDS011;27638;42.184;24.848;2022-08-01T08:17:32;7.18;;;1.73;;
41946;SDS011;27638;42.184;24.848;2022-08-01T08:19:58;5.32;;;1.48;;
41946;SDS011;27638;42.184;24.848;2022-08-01T08:22:24;14.98;;;1.85;;
41946;SDS011;27638;42.184;24.848;2022-08-01T08:24:49;5.25;;;1.70;;
41946;SDS011;27638;42.184;24.848;2022-08-01T08:27:15;4.97;;;1.40;;
41946;SDS011;27638;42.184;24.848;2022-08-01T08:29:40;5.20;;;1.65;;
41946;SDS011;27638;42.184;24.848;2022-08-01T08:32:06;9.52;;;2.05;;
41946;SDS011;27638;42.184;24.848;2022-08-01T08:34:32;7.18;;;2.08;;
41946;SDS011;27638;42.184;24.848;2022-08-01T08:36:59;5.70;;;1.85;;
41946;SDS011;27638;42.184;24.848;2022-08-01T08:39:24;6.25;;;1.58;;
41946;SDS011;27638;42.184;24.848;2022-08-01T08:41:50;6.45;;;1.55;;
41946;SDS011;27638;42.184;24.848;2022-08-01T08:44:16;6.63;;;1.40;;
41946;SDS011;27638;42.184;24.848;2022-08-01T08:46:43;1.70;;;1.23;;
41946;SDS011;27638;42.184;24.848;2022-08-01T08:49:11;6.38;;;1.60;;
41946;SDS011;27638;42.184;24.848;2022-08-01T08:51:41;3.83;;;1.65;;
41946;SDS011;27638;42.184;24.848;2022-08-01T08:54:07;3.33;;;2.58;;
41946;SDS011;27638;42.184;24.848;2022-08-01T08:56:36;6.10;;;2.05;;
41946;SDS011;27638;42.184;24.848;2022-08-01T08:59:02;3.08;;;1.48;;
41946;SDS011;27638;42.184;24.848;2022-08-01T09:01:30;6.35;;;1.77;;
41946;SDS011;27638;42.184;24.848;2022-08-01T09:04:00;4.72;;;1.70;;
41946;SDS011;27638;42.184;24.848;2022-08-01T09:06:28;4.80;;;1.63;;
41946;SDS011;27638;42.184;24.848;2022-08-01T09:08:55;7.72;;;1.60;;
41946;SDS011;27638;42.184;24.848;2022-08-01T09:11:21;4.63;;;2.00;;
41946;SDS011;27638;42.184;24.848;2022-08-01T09:16:27;3.45;;;1.80;;
41946;SDS011;27638;42.184;24.848;2022-08-01T09:18:53;3.08;;;2.05;;
41946;SDS011;27638;42.184;24.848;2022-08-01T09:21:19;10.60;;;1.98;;
41946;SDS011;27638;42.184;24.848;2022-08-01T09:23:52;2.83;;;1.35;;
41946;SDS011;27638;42.184;24.848;2022-08-01T09:26:21;6.25;;;2.08;;
41946;SDS011;27638;42.184;24.848;2022-08-01T09:28:55;5.38;;;1.90;;
41946;SDS011;27638;42.184;24.848;2022-08-01T09:31:20;7.60;;;1.95;;
41946;SDS011;27638;42.184;24.848;2022-08-01T09:33:53;7.88;;;1.63;;
41946;SDS011;27638;42.184;24.848;2022-08-01T09:39:17;7.35;;;2.30;;
41946;SDS011;27638;42.184;24.848;2022-08-01T09:41:47;5.43;;;2.08;;
41946;SDS011;27638;42.184;24.848;2022-08-01T09:44:13;5.30;;;1.50;;
41946;SDS011;27638;42.184;24.848;2022-08-01T09:46:49;5.13;;;1.70;;
41946;SDS011;27638;42.184;24.848;2022-08-01T09:49:26;1.67;;;1.58;;
41946;SDS011;27638;42.184;24.848;2022-08-01T09:51:56;3.05;;;1.35;;
41946;SDS011;27638;42.184;24.848;2022-08-01T09:54:30;10.27;;;1.88;;
41946;SDS011;27638;42.184;24.848;2022-08-01T09:57:07;9.50;;;1.92;;
41946;SDS011;27638;42.184;24.848;2022-08-01T09:59:35;10.70;;;2.10;;
41946;SDS011;27638;42.184;24.848;2022-08-01T10:02:03;6.55;;;1.60;;
41946;SDS011;27638;42.184;24.848;2022-08-01T10:04:28;4.97;;;2.05;;
41946;SDS011;27638;42.184;24.848;2022-08-01T10:06:57;3.80;;;2.10;;
41946;SDS011;27638;42.184;24.848;2022-08-01T10:09:30;8.10;;;1.27;;
41946;SDS011;27638;42.184;24.848;2022-08-01T10:11:58;6.00;;;1.50;;
41946;SDS011;27638;42.184;24.848;2022-08-01T10:14:24;10.18;;;1.75;;
41946;SDS011;27638;42.184;24.848;2022-08-01T10:16:51;3.47;;;1.40;;
41946;SDS011;27638;42.184;24.848;2022-08-01T10:19:18;9.25;;;2.30;;
41946;SDS011;27638;42.184;24.848;2022-08-01T10:21:46;11.95;;;2.20;;
41946;SDS011;27638;42.184;24.848;2022-08-01T10:24:15;11.50;;;1.75;;
41946;SDS011;27638;42.184;24.848;2022-08-01T10:26:41;5.43;;;1.55;;
41946;SDS011;27638;42.184;24.848;2022-08-01T10:29:09;2.65;;;1.45;;
41946;SDS011;27638;42.184;24.848;2022-08-01T10:31:36;5.63;;;1.52;;
41946;SDS011;27638;42.184;24.848;2022-08-01T10:34:02;2.75;;;1.38;;
41946;SDS011;27638;42.184;24.848;2022-08-01T10:36:29;2.45;;;1.60;;
41946;SDS011;27638;42.184;24.848;2022-08-01T10:38:56;4.65;;;1.38;;
41946;SDS011;27638;42.184;24.848;2022-08-01T10:41:22;2.72;;;1.58;;
41946;SDS011;27638;42.184;24.848;2022-08-01T10:43:50;2.38;;;1.75;;
41946;SDS011;27638;42.184;24.848;2022-08-01T10:46:18;5.32;;;2.03;;
41946;SDS011;27638;42.184;24.848;2022-08-01T10:49:04;4.63;;;1.58;;
41946;SDS011;27638;42.184;24.848;2022-08-01T10:51:34;1.65;;;1.30;;
41946;SDS011;27638;42.184;24.848;2022-08-01T10:54:05;3.42;;;1.40;;
41946;SDS011;27638;42.184;24.848;2022-08-01T10:56:44;8.57;;;1.75;;
41946;SDS011;27638;42.184;24.848;2022-08-01T10:59:25;4.30;;;1.58;;
41946;SDS011;27638;42.184;24.848;2022-08-01T11:01:59;4.95;;;1.50;;
41946;SDS011;27638;42.184;24.848;2022-08-01T11:12:54;8.13;;;1.70;;
41946;SDS011;27638;42.184;24.848;2022-08-01T11:15:21;5.60;;;1.58;;
41946;SDS011;27638;42.184;24.848;2022-08-01T11:17:51;3.90;;;1.58;;
41946;SDS011;27638;42.184;24.848;2022-08-01T11:30:43;4.55;;;1.40;;
41946;SDS011;27638;42.184;24.848;2022-08-01T11:33:10;7.13;;;1.73;;
41946;SDS011;27638;42.184;24.848;2022-08-01T11:35:38;2.63;;;1.80;;
41946;SDS011;27638;42.184;24.848;2022-08-01T11:38:35;2.03;;;1.67;;
41946;SDS011;27638;42.184;24.848;2022-08-01T11:41:21;4.80;;;1.60;;
41946;SDS011;27638;42.184;24.848;2022-08-01T11:43:58;2.72;;;1.40;;
41946;SDS011;27638;42.184;24.848;2022-08-01T11:52:09;5.63;;;1.65;;
41946;SDS011;27638;42.184;24.848;2022-08-01T11:57:07;2.00;;;1.33;;
41946;SDS011;27638;42.184;24.848;2022-08-01T11:59:35;4.22;;;1.50;;
41946;SDS011;27638;42.184;24.848;2022-08-01T12:02:02;1.45;;;1.20;;
41946;SDS011;27638;42.184;24.848;2022-08-01T12:04:43;7.07;;;1.50;;
41946;SDS011;27638;42.184;24.848;2022-08-01T12:07:15;4.15;;;1.55;;
41946;SDS011;27638;42.184;24.848;2022-08-01T12:09:42;2.47;;;1.50;;
41946;SDS011;27638;42.184;24.848;2022-08-01T12:12:08;3.42;;;1.50;;
41946;SDS011;27638;42.184;24.848;2022-08-01T12:14:34;4.95;;;1.38;;
41946;SDS011;27638;42.184;24.848;2022-08-01T12:17:00;5.10;;;1.40;;
41946;SDS011;27638;42.184;24.848;2022-08-01T12:19:25;2.25;;;1.33;;
41946;SDS011;27638;42.184;24.848;2022-08-01T12:24:35;2.90;;;1.20;;
41946;SDS011;27638;42.184;24.848;2022-08-01T12:27:01;1.20;;;1.10;;
41946;SDS011;27638;42.184;24.848;2022-08-01T12:29:37;2.70;;;2.25;;
41946;SDS011;27638;42.184;24.848;2022-08-01T12:35:08;2.25;;;1.60;;
41946;SDS011;27638;42.184;24.848;2022-08-01T12:37:37;5.65;;;2.25;;
41946;SDS011;27638;42.184;24.848;2022-08-01T12:40:13;2.25;;;1.40;;
41946;SDS011;27638;42.184;24.848;2022-08-01T12:42:47;2.75;;;1.88;;
41946;SDS011;27638;42.184;24.848;2022-08-01T12:45:15;1.52;;;1.23;;
41946;SDS011;27638;42.184;24.848;2022-08-01T12:47:42;5.00;;;1.27;;
41946;SDS011;27638;42.184;24.848;2022-08-01T12:50:18;4.07;;;1.25;;
41946;SDS011;27638;42.184;24.848;2022-08-01T12:52:46;3.17;;;1.20;;
41946;SDS011;27638;42.184;24.848;2022-08-01T12:55:13;2.28;;;1.15;;
41946;SDS011;27638;42.184;24.848;2022-08-01T12:58:30;3.60;;;1.42;;
41946;SDS011;27638;42.184;24.848;2022-08-01T13:00:49;4.18;;;1.50;;
41946;SDS011;27638;42.184;24.848;2022-08-01T13:03:16;2.47;;;1.73;;
41946;SDS011;27638;42.184;24.848;2022-08-01T13:05:47;3.85;;;2.30;;
41946;SDS011;27638;42.184;24.848;2022-08-01T13:08:20;4.82;;;1.42;;
41946;SDS011;27638;42.184;24.848;2022-08-01T13:10:47;3.88;;;1.73;;
41946;SDS011;27638;42.184;24.848;2022-08-01T13:13:14;2.70;;;1.30;;
41946;SDS011;27638;42.184;24.848;2022-08-01T13:15:41;2.40;;;1.30;;
41946;SDS011;27638;42.184;24.848;2022-08-01T13:21:07;2.75;;;1.60;;
41946;SDS011;27638;42.184;24.848;2022-08-01T13:23:37;1.88;;;1.25;;
41946;SDS011;27638;42.184;24.848;2022-08-01T13:26:04;2.20;;;1.00;;
41946;SDS011;27638;42.184;24.848;2022-08-01T13:28:29;2.10;;;1.40;;
41946;SDS011;27638;42.184;24.848;2022-08-01T13:31:04;3.88;;;1.50;;
41946;SDS011;27638;42.184;24.848;2022-08-01T13:33:47;2.20;;;1.38;;
41946;SDS011;27638;42.184;24.848;2022-08-01T13:36:13;4.40;;;1.30;;
41946;SDS011;27638;42.184;24.848;2022-08-01T13:38:40;3.28;;;1.42;;
41946;SDS011;27638;42.184;24.848;2022-08-01T13:41:25;2.40;;;1.55;;
41946;SDS011;27638;42.184;24.848;2022-08-01T13:43:51;2.03;;;1.40;;
41946;SDS011;27638;42.184;24.848;2022-08-01T13:46:16;1.38;;;1.05;;
41946;SDS011;27638;42.184;24.848;2022-08-01T13:48:42;2.58;;;1.20;;
41946;SDS011;27638;42.184;24.848;2022-08-01T13:51:08;2.95;;;1.20;;
41946;SDS011;27638;42.184;24.848;2022-08-01T13:53:33;4.30;;;1.35;;
41946;SDS011;27638;42.184;24.848;2022-08-01T13:55:59;1.73;;;1.20;;
41946;SDS011;27638;42.184;24.848;2022-08-01T13:58:24;3.40;;;1.73;;
41946;SDS011;27638;42.184;24.848;2022-08-01T14:00:50;4.15;;;1.50;;
41946;SDS011;27638;42.184;24.848;2022-08-01T14:03:15;1.73;;;1.50;;
41946;SDS011;27638;42.184;24.848;2022-08-01T14:05:42;1.45;;;1.20;;
41946;SDS011;27638;42.184;24.848;2022-08-01T14:08:10;3.90;;;1.10;;
41946;SDS011;27638;42.184;24.848;2022-08-01T14:10:36;1.30;;;1.20;;
41946;SDS011;27638;42.184;24.848;2022-08-01T14:13:02;2.45;;;1.38;;
41946;SDS011;27638;42.184;24.848;2022-08-01T14:15:27;7.65;;;3.88;;
41946;SDS011;27638;42.184;24.848;2022-08-01T14:17:53;8.13;;;4.40;;
41946;SDS011;27638;42.184;24.848;2022-08-01T14:20:19;4.88;;;3.05;;
41946;SDS011;27638;42.184;24.848;2022-08-01T14:22:47;5.38;;;3.30;;
41946;SDS011;27638;42.184;24.848;2022-08-01T14:25:13;10.25;;;3.25;;
41946;SDS011;27638;42.184;24.848;2022-08-01T14:27:38;9.50;;;2.80;;
41946;SDS011;27638;42.184;24.848;2022-08-01T14:30:06;9.05;;;3.78;;
41946;SDS011;27638;42.184;24.848;2022-08-01T14:32:35;5.57;;;3.60;;
41946;SDS011;27638;42.184;24.848;2022-08-01T14:35:04;5.47;;;2.97;;
41946;SDS011;27638;42.184;24.848;2022-08-01T14:37:31;2.95;;;1.92;;
41946;SDS011;27638;42.184;24.848;2022-08-01T14:39:57;15.05;;;2.67;;
41946;SDS011;27638;42.184;24.848;2022-08-01T14:42:24;1.95;;;1.60;;
41946;SDS011;27638;42.184;24.848;2022-08-01T14:44:50;1.92;;;1.60;;
41946;SDS011;27638;42.184;24.848;2022-08-01T14:47:16;2.72;;;1.50;;
41946;SDS011;27638;42.184;24.848;2022-08-01T14:49:42;5.03;;;2.13;;
41946;SDS011;27638;42.184;24.848;2022-08-01T14:52:07;3.92;;;1.50;;
41946;SDS011;27638;42.184;24.848;2022-08-01T14:54:33;2.70;;;1.42;;
41946;SDS011;27638;42.184;24.848;2022-08-01T14:56:58;2.53;;;1.42;;
41946;SDS011;27638;42.184;24.848;2022-08-01T14:59:24;6.35;;;2.00;;
41946;SDS011;27638;42.184;24.848;2022-08-01T15:01:49;3.00;;;1.70;;
41946;SDS011;27638;42.184;24.848;2022-08-01T15:04:15;3.88;;;1.55;;
41946;SDS011;27638;42.184;24.848;2022-08-01T15:06:42;2.95;;;1.52;;
41946;SDS011;27638;42.184;24.848;2022-08-01T15:09:07;4.45;;;1.55;;
41946;SDS011;27638;42.184;24.848;2022-08-01T15:11:32;2.40;;;1.45;;
41946;SDS011;27638;42.184;24.848;2022-08-01T15:13:58;1.90;;;1.00;;
41946;SDS011;27638;42.184;24.848;2022-08-01T15:16:42;8.90;;;1.70;;
41946;SDS011;27638;42.184;24.848;2022-08-01T15:19:07;3.50;;;2.00;;
41946;SDS011;27638;42.184;24.848;2022-08-01T15:21:33;3.47;;;2.40;;
41946;SDS011;27638;42.184;24.848;2022-08-01T15:23:58;3.80;;;2.72;;
41946;SDS011;27638;42.184;24.848;2022-08-01T15:26:24;4.63;;;2.70;;
41946;SDS011;27638;42.184;24.848;2022-08-01T15:28:49;4.15;;;1.88;;
41946;SDS011;27638;42.184;24.848;2022-08-01T15:31:15;4.07;;;2.05;;
41946;SDS011;27638;42.184;24.848;2022-08-01T15:33:40;15.52;;;2.45;;
41946;SDS011;27638;42.184;24.848;2022-08-01T15:36:06;4.88;;;2.15;;
41946;SDS011;27638;42.184;24.848;2022-08-01T15:38:31;3.08;;;1.80;;